Time;durP1;ratioP1;P1;durP2;ratioP2;P2;SDS_P1;SDS_P2;PMS_P1;PMS_P2;Temp;Humidity;BMP_temperature;BMP_pressure;BME280_temperature;BME280_humidity;BME280_pressure;Samples;Min_cycle;Max_cycle;Signal;HPM_P1;HPM_P2
2021/12/30 00:01:16;;;;;;;12.50;11.90;;;13.80;94.10;;;;;;5012620;28;20453;-73
2021/12/30 00:03:43;;;;;;;12.50;12.00;;;13.90;93.90;;;;;;5012356;28;20524;-73
2021/12/30 00:06:11;;;;;;;14.40;13.80;;;13.80;94.00;;;;;;5012582;28;20457;-73
2021/12/30 00:08:38;;;;;;;12.70;12.20;;;13.80;93.90;;;;;;5012475;28;20472;-73
2021/12/30 00:11:08;;;;;;;12.93;12.27;;;13.70;94.20;;;;;;5012483;28;20560;-73
2021/12/30 00:13:35;;;;;;;12.13;11.63;;;13.70;94.00;;;;;;5012622;28;20457;-73
2021/12/30 00:16:03;;;;;;;12.50;12.00;;;13.70;93.80;;;;;;5012383;28;20483;-73
2021/12/30 00:18:30;;;;;;;12.53;12.03;;;13.60;93.60;;;;;;5012357;28;20966;-73
2021/12/30 00:20:57;;;;;;;13.20;12.30;;;13.60;93.30;;;;;;5012487;28;20457;-73
2021/12/30 00:23:24;;;;;;;12.47;11.97;;;13.60;92.90;;;;;;5012357;28;20448;-73
2021/12/30 00:25:51;;;;;;;13.00;12.40;;;13.60;92.90;;;;;;5012278;28;20453;-73
2021/12/30 00:28:22;;;;;;;13.20;12.60;;;13.60;91.90;;;;;;5012303;28;20871;-73
2021/12/30 00:30:51;;;;;;;13.27;12.70;;;13.70;91.40;;;;;;5012130;28;21002;-73
2021/12/30 00:33:19;;;;;;;13.13;12.53;;;13.70;91.40;;;;;;5012271;28;20457;-73
2021/12/30 00:35:46;;;;;;;13.10;12.50;;;13.70;91.00;;;;;;5012419;28;20548;-73
2021/12/30 00:38:16;;;;;;;12.87;12.37;;;13.70;90.70;;;;;;5013527;28;20806;-73
2021/12/30 00:40:43;;;;;;;13.40;12.70;;;13.70;90.60;;;;;;5016050;28;20448;-72
2021/12/30 00:43:11;;;;;;;12.90;12.40;;;13.80;90.00;;;;;;5015623;28;20461;-72
2021/12/30 00:45:39;;;;;;;13.57;12.90;;;13.90;89.50;;;;;;5015827;28;20487;-73
2021/12/30 00:48:07;;;;;;;13.93;13.23;;;13.90;89.00;;;;;;5015610;28;20452;-72
2021/12/30 00:50:36;;;;;;;13.13;12.63;;;13.90;89.10;;;;;;5015447;28;20899;-72
2021/12/30 00:53:03;;;;;;;13.80;13.20;;;13.90;88.90;;;;;;5015775;28;20475;-72
2021/12/30 00:55:30;;;;;;;13.50;12.90;;;14.00;88.50;;;;;;5015709;28;20448;-72
2021/12/30 00:57:57;;;;;;;13.50;12.90;;;13.90;88.70;;;;;;5015540;28;20449;-72
2021/12/30 01:00:28;;;;;;;13.67;13.07;;;13.90;88.60;;;;;;5015567;28;20457;-72
2021/12/30 01:02:57;;;;;;;13.80;13.20;;;13.80;88.60;;;;;;5015673;28;20453;-72
2021/12/30 01:05:24;;;;;;;13.30;12.70;;;13.80;88.50;;;;;;5015532;28;20456;-72
2021/12/30 01:07:51;;;;;;;13.70;13.10;;;13.90;88.30;;;;;;5015590;28;20468;-72
2021/12/30 01:10:23;;;;;;;14.10;13.40;;;13.80;87.80;;;;;;5015033;28;20480;-72
2021/12/30 01:12:50;;;;;;;14.27;13.33;;;13.80;88.00;;;;;;5015552;28;20548;-72
2021/12/30 01:15:21;;;;;;;14.90;14.20;;;13.90;87.50;;;;;;5015645;28;20508;-72
2021/12/30 01:17:52;;;;;;;13.90;13.20;;;13.90;87.60;;;;;;5015440;28;20452;-73
2021/12/30 01:20:22;;;;;;;14.17;13.50;;;13.90;87.30;;;;;;5015138;28;21001;-73
2021/12/30 01:22:51;;;;;;;13.57;12.97;;;13.90;87.50;;;;;;5015146;28;20502;-73
2021/12/30 01:25:19;;;;;;;14.30;13.50;;;14.00;87.40;;;;;;5015206;28;20459;-73
2021/12/30 01:27:46;;;;;;;14.30;13.60;;;13.90;87.90;;;;;;5015237;28;20463;-73
2021/12/30 01:30:17;;;;;;;14.70;14.10;;;13.90;87.60;;;;;;5014779;28;20849;-73
2021/12/30 01:32:44;;;;;;;14.17;13.57;;;13.90;87.60;;;;;;5015304;28;20453;-73
2021/12/30 01:35:14;;;;;;;14.10;13.50;;;13.90;87.60;;;;;;5015001;28;20453;-73
2021/12/30 01:37:43;;;;;;;14.83;14.13;;;13.90;87.40;;;;;;5014961;28;20467;-73
2021/12/30 01:40:14;;;;;;;20.83;19.20;;;13.80;87.70;;;;;;5014618;28;21032;-73
2021/12/30 01:42:41;;;;;;;14.23;13.63;;;13.80;87.70;;;;;;5014678;28;20494;-73
2021/12/30 01:45:09;;;;;;;14.70;13.80;;;13.90;87.40;;;;;;5014877;28;20459;-73
2021/12/30 01:47:37;;;;;;;14.40;13.80;;;13.80;87.70;;;;;;5014709;28;20456;-73
2021/12/30 01:50:05;;;;;;;14.53;13.83;;;13.80;87.80;;;;;;5014000;28;20480;-73
2021/12/30 01:52:32;;;;;;;14.50;13.80;;;13.80;87.60;;;;;;5014613;28;20456;-73
2021/12/30 01:55:00;;;;;;;14.70;14.00;;;13.70;87.90;;;;;;5014539;28;20464;-73
2021/12/30 01:57:27;;;;;;;14.43;13.83;;;13.60;88.10;;;;;;5014581;28;20464;-73
2021/12/30 01:59:54;;;;;;;14.40;13.70;;;13.60;88.30;;;;;;5014274;28;20555;-73
2021/12/30 02:02:21;;;;;;;14.30;13.63;;;13.60;88.00;;;;;;5014367;28;20459;-73
2021/12/30 02:04:48;;;;;;;14.97;14.27;;;13.60;87.60;;;;;;5014475;28;20467;-73
2021/12/30 02:07:15;;;;;;;14.53;13.80;;;13.60;87.60;;;;;;5014465;28;20453;-73
2021/12/30 02:09:42;;;;;;;14.53;13.93;;;13.50;87.70;;;;;;5014099;28;20575;-73
2021/12/30 02:12:11;;;;;;;14.90;14.20;;;13.50;87.80;;;;;;5014176;28;20986;-73
2021/12/30 02:14:38;;;;;;;14.77;14.17;;;13.50;87.60;;;;;;5014178;28;20452;-73
2021/12/30 02:17:06;;;;;;;15.27;14.37;;;13.50;87.60;;;;;;5014164;28;20460;-73
2021/12/30 02:19:33;;;;;;;14.73;14.03;;;13.50;87.50;;;;;;5013796;28;20487;-73
2021/12/30 02:22:02;;;;;;;15.23;14.53;;;13.50;87.60;;;;;;5014171;28;20539;-73
2021/12/30 02:24:29;;;;;;;14.70;14.10;;;13.50;87.80;;;;;;5014091;28;20926;-72
2021/12/30 02:26:56;;;;;;;14.67;14.00;;;13.50;87.30;;;;;;5013919;28;20463;-73
2021/12/30 02:29:23;;;;;;;15.73;14.93;;;13.50;87.40;;;;;;5013616;28;20477;-73
2021/12/30 02:31:50;;;;;;;14.70;14.10;;;13.60;87.20;;;;;;5013716;28;20991;-73
2021/12/30 02:34:19;;;;;;;15.10;14.30;;;13.60;87.20;;;;;;5013880;28;20942;-72
2021/12/30 02:36:48;;;;;;;15.37;14.57;;;13.60;87.00;;;;;;5013922;28;20551;-73
2021/12/30 02:39:18;;;;;;;15.20;14.50;;;13.60;87.20;;;;;;5013651;28;20823;-72
2021/12/30 02:41:45;;;;;;;15.37;14.67;;;13.60;87.00;;;;;;5013772;28;20473;-72
2021/12/30 02:44:13;;;;;;;15.70;14.70;;;13.60;87.00;;;;;;5014048;28;20452;-72
2021/12/30 02:46:40;;;;;;;14.53;13.83;;;13.60;87.10;;;;;;5013666;28;20456;-72
2021/12/30 02:49:07;;;;;;;15.30;14.40;;;13.60;87.00;;;;;;5013651;28;20520;-72
2021/12/30 02:51:34;;;;;;;15.00;14.20;;;13.60;87.20;;;;;;5013789;28;20559;-72
2021/12/30 02:54:02;;;;;;;14.70;13.90;;;13.70;87.00;;;;;;5013478;28;20464;-73
2021/12/30 02:56:31;;;;;;;14.80;14.00;;;13.80;86.80;;;;;;5013407;28;20459;-73
2021/12/30 02:58:58;;;;;;;15.37;14.67;;;13.80;86.80;;;;;;5013273;28;20468;-73
2021/12/30 03:01:27;;;;;;;15.23;14.23;;;13.80;86.90;;;;;;5012638;28;20455;-72
2021/12/30 03:03:54;;;;;;;15.40;14.60;;;13.80;86.90;;;;;;5013599;28;20444;-72
2021/12/30 03:06:21;;;;;;;15.43;14.43;;;13.80;87.00;;;;;;5013430;28;20449;-72
2021/12/30 03:08:50;;;;;;;15.03;14.23;;;13.80;87.20;;;;;;5013320;28;20572;-73
2021/12/30 03:11:17;;;;;;;14.90;14.20;;;13.80;87.30;;;;;;5013020;28;20706;-73
2021/12/30 03:13:46;;;;;;;15.97;15.10;;;13.70;87.40;;;;;;5013239;28;20453;-73
2021/12/30 03:16:16;;;;;;;16.10;15.03;;;13.80;87.50;;;;;;5013200;28;20449;-73
2021/12/30 03:18:45;;;;;;;15.20;14.50;;;13.80;87.50;;;;;;5013063;28;20893;-73
2021/12/30 03:21:14;;;;;;;15.50;14.80;;;13.80;87.50;;;;;;5012908;28;20909;-73
2021/12/30 03:23:40;;;;;;;16.37;15.67;;;13.80;87.70;;;;;;5013010;28;20456;-73
2021/12/30 03:26:08;;;;;;;15.03;14.37;;;13.70;87.80;;;;;;5012953;28;20997;-73
2021/12/30 03:28:36;;;;;;;15.67;14.67;;;13.70;88.00;;;;;;5012855;28;21021;-73
2021/12/30 03:31:04;;;;;;;15.40;14.60;;;13.80;88.10;;;;;;5012798;28;20922;-73
2021/12/30 03:33:32;;;;;;;15.37;14.67;;;13.70;88.10;;;;;;5012901;28;20457;-73
2021/12/30 03:36:01;;;;;;;15.40;14.60;;;13.70;88.30;;;;;;5012949;28;20461;-73
2021/12/30 03:38:29;;;;;;;16.70;15.90;;;13.60;88.50;;;;;;5012730;28;20552;-73
2021/12/30 03:40:55;;;;;;;16.50;15.40;;;13.60;88.60;;;;;;5012765;28;20456;-73
2021/12/30 03:43:22;;;;;;;15.40;14.70;;;13.60;88.80;;;;;;5012735;28;20465;-73
2021/12/30 03:45:49;;;;;;;15.80;15.00;;;13.50;89.20;;;;;;5012780;28;20463;-73
2021/12/30 03:48:17;;;;;;;14.90;14.10;;;13.50;89.40;;;;;;5012592;28;20457;-73
2021/12/30 03:50:45;;;;;;;15.27;14.43;;;13.50;89.40;;;;;;5012549;28;20483;-73
2021/12/30 03:53:14;;;;;;;14.87;14.17;;;13.50;90.00;;;;;;5012639;28;20507;-72
2021/12/30 03:55:42;;;;;;;15.53;14.73;;;13.50;90.00;;;;;;5012740;28;20453;-73
2021/12/30 03:58:10;;;;;;;14.97;14.30;;;13.50;89.90;;;;;;5012701;28;20459;-73
2021/12/30 04:00:38;;;;;;;15.70;14.90;;;13.40;90.00;;;;;;5012405;28;20560;-73
2021/12/30 04:03:05;;;;;;;15.73;14.83;;;13.40;90.40;;;;;;5012690;28;20448;-73
2021/12/30 04:05:34;;;;;;;15.37;14.60;;;13.40;90.40;;;;;;5012607;28;20459;-73
2021/12/30 04:08:01;;;;;;;15.30;14.60;;;13.40;90.60;;;;;;5012580;28;20457;-73
2021/12/30 04:10:28;;;;;;;15.30;14.60;;;13.40;90.70;;;;;;5012235;28;20472;-73
2021/12/30 04:12:56;;;;;;;15.37;14.57;;;13.40;90.50;;;;;;5014998;28;20463;-73
2021/12/30 04:15:23;;;;;;;14.73;14.07;;;13.40;90.60;;;;;;5016466;28;20481;-73
2021/12/30 04:17:50;;;;;;;15.37;14.67;;;13.40;90.60;;;;;;5016391;28;20829;-73
2021/12/30 04:20:17;;;;;;;18.10;17.17;;;13.40;90.90;;;;;;5016125;28;20555;-73
2021/12/30 04:22:46;;;;;;;16.93;15.83;;;13.40;91.10;;;;;;5016341;28;20463;-73
2021/12/30 04:25:14;;;;;;;16.40;15.60;;;13.40;91.50;;;;;;5016323;28;20849;-73
2021/12/30 04:27:42;;;;;;;15.10;14.40;;;13.40;91.80;;;;;;5016187;28;20930;-73
2021/12/30 04:30:11;;;;;;;14.87;14.10;;;13.40;91.90;;;;;;5015880;28;20472;-73
2021/12/30 04:32:39;;;;;;;14.43;13.73;;;13.50;92.10;;;;;;5016073;28;20485;-73
2021/12/30 04:35:08;;;;;;;15.10;14.10;;;13.50;92.10;;;;;;5016149;28;20463;-73
2021/12/30 04:37:35;;;;;;;15.30;14.47;;;13.50;92.30;;;;;;5015995;28;20453;-73
2021/12/30 04:40:04;;;;;;;14.33;13.73;;;13.50;92.50;;;;;;5015900;28;20469;-73
2021/12/30 04:42:31;;;;;;;15.27;14.57;;;13.40;93.00;;;;;;5015834;28;20499;-73
2021/12/30 04:44:58;;;;;;;12.00;11.50;;;13.40;93.20;;;;;;5015993;28;20544;-73
2021/12/30 04:47:25;;;;;;;15.47;14.77;;;13.40;93.40;;;;;;5015756;28;20453;-73
2021/12/30 04:49:55;;;;;;;13.67;13.07;;;13.40;93.80;;;;;;5015563;28;20487;-73
2021/12/30 04:52:22;;;;;;;13.73;13.13;;;13.40;94.30;;;;;;5016102;28;20530;-73
2021/12/30 04:54:49;;;;;;;15.27;14.57;;;13.40;94.30;;;;;;5015665;28;20467;-73
2021/12/30 04:57:18;;;;;;;14.27;13.67;;;13.50;94.10;;;;;;5015818;28;20468;-73
2021/12/30 04:59:45;;;;;;;13.40;12.80;;;13.60;94.00;;;;;;5015544;28;20480;-73
2021/12/30 05:02:12;;;;;;;14.63;14.03;;;13.50;94.20;;;;;;5015697;28;20460;-72
2021/12/30 05:04:39;;;;;;;12.97;12.47;;;13.50;94.50;;;;;;5015667;28;20515;-73
2021/12/30 05:07:06;;;;;;;14.83;14.13;;;13.40;94.80;;;;;;5015623;28;20449;-73
2021/12/30 05:09:33;;;;;;;13.70;12.93;;;13.50;94.70;;;;;;5015435;28;20519;-73
2021/12/30 05:12:00;;;;;;;12.60;12.03;;;13.40;94.70;;;;;;5015361;28;20489;-73
2021/12/30 05:14:29;;;;;;;13.80;13.20;;;13.40;94.90;;;;;;5015330;28;20467;-73
2021/12/30 05:17:02;;;;;;;14.27;13.67;;;13.40;95.20;;;;;;5015387;28;20452;-73
2021/12/30 05:19:29;;;;;;;16.17;15.37;;;13.30;95.10;;;;;;5015014;28;20511;-73
2021/12/30 05:21:56;;;;;;;14.57;13.87;;;13.30;95.10;;;;;;5015293;28;20441;-73
2021/12/30 05:24:23;;;;;;;14.30;13.60;;;13.30;95.10;;;;;;5014536;28;20449;-73
2021/12/30 05:26:50;;;;;;;14.67;14.07;;;13.30;95.00;;;;;;5015052;28;20457;-73
2021/12/30 05:29:16;;;;;;;15.23;14.60;;;13.30;95.00;;;;;;5014984;28;20476;-73
2021/12/30 05:31:45;;;;;;;14.77;14.17;;;13.30;95.10;;;;;;5015133;28;20928;-72
2021/12/30 05:34:12;;;;;;;15.20;14.50;;;13.30;95.20;;;;;;5015028;28;20461;-72
2021/12/30 05:36:38;;;;;;;14.60;13.80;;;13.30;95.10;;;;;;5015181;28;20457;-72
2021/12/30 05:39:05;;;;;;;15.47;14.73;;;13.30;95.00;;;;;;5014730;28;20479;-72
2021/12/30 05:41:32;;;;;;;16.10;15.30;;;13.30;95.00;;;;;;5014807;28;20452;-72
2021/12/30 05:44:00;;;;;;;14.77;14.07;;;13.30;95.00;;;;;;5015024;28;20465;-72
2021/12/30 05:46:28;;;;;;;14.23;13.63;;;13.40;94.80;;;;;;5014830;28;20468;-73
2021/12/30 05:48:56;;;;;;;13.93;13.33;;;13.40;94.70;;;;;;5014692;28;20484;-73
2021/12/30 05:51:23;;;;;;;14.40;13.80;;;13.40;94.50;;;;;;5014580;28;20480;-73
2021/12/30 05:53:50;;;;;;;14.00;13.40;;;13.50;94.20;;;;;;5014474;28;20552;-72
2021/12/30 05:56:17;;;;;;;14.57;13.87;;;13.50;94.10;;;;;;5014545;28;20449;-73
2021/12/30 05:58:44;;;;;;;13.83;13.20;;;13.50;94.30;;;;;;5014501;28;20580;-73
2021/12/30 06:01:11;;;;;;;12.07;11.57;;;13.40;94.90;;;;;;5014269;28;20457;-73
2021/12/30 06:03:38;;;;;;;14.40;13.77;;;13.40;94.80;;;;;;5014504;28;20455;-73
2021/12/30 06:06:06;;;;;;;14.00;13.40;;;13.40;94.90;;;;;;5014343;28;20467;-73
2021/12/30 06:08:34;;;;;;;13.90;13.30;;;13.40;94.70;;;;;;5014235;28;20528;-73
2021/12/30 06:11:02;;;;;;;14.10;13.40;;;13.40;94.70;;;;;;5014287;28;20467;-73
2021/12/30 06:13:28;;;;;;;14.00;13.40;;;13.40;94.80;;;;;;5014209;28;20865;-73
2021/12/30 06:15:55;;;;;;;15.13;14.40;;;13.50;94.60;;;;;;5014293;28;20453;-73
2021/12/30 06:18:22;;;;;;;15.03;14.33;;;13.50;94.50;;;;;;5014076;28;20943;-73
2021/12/30 06:20:49;;;;;;;14.23;13.53;;;13.60;94.20;;;;;;5013920;28;20461;-73
2021/12/30 06:23:18;;;;;;;16.50;15.80;;;13.60;94.20;;;;;;5014098;28;20455;-73
2021/12/30 06:25:45;;;;;;;13.50;12.90;;;13.60;94.50;;;;;;5014059;28;20548;-74
2021/12/30 06:28:12;;;;;;;13.50;13.00;;;13.60;94.70;;;;;;5014058;28;20826;-73
2021/12/30 06:30:39;;;;;;;13.20;12.70;;;13.60;94.80;;;;;;5013805;28;20477;-73
2021/12/30 06:33:06;;;;;;;15.63;14.67;;;13.60;94.80;;;;;;5013840;28;21006;-73
2021/12/30 06:35:34;;;;;;;16.70;16.00;;;13.60;94.90;;;;;;5012859;28;20456;-73
2021/12/30 06:38:01;;;;;;;14.20;13.50;;;13.60;94.90;;;;;;5013834;28;20764;-73
2021/12/30 06:40:30;;;;;;;13.70;13.10;;;13.60;95.20;;;;;;5013511;28;20487;-73
2021/12/30 06:42:57;;;;;;;13.53;12.93;;;13.60;95.00;;;;;;5013502;28;20460;-73
2021/12/30 06:45:24;;;;;;;13.63;13.03;;;13.60;95.20;;;;;;5013871;28;20492;-73
2021/12/30 06:47:51;;;;;;;14.93;14.30;;;13.60;95.20;;;;;;5013457;28;20456;-73
2021/12/30 06:50:20;;;;;;;14.20;13.57;;;13.60;95.00;;;;;;5013388;28;20922;-73
2021/12/30 06:52:47;;;;;;;15.20;14.60;;;13.60;95.40;;;;;;5013575;28;20575;-73
2021/12/30 06:55:14;;;;;;;13.50;12.80;;;13.60;95.40;;;;;;5013548;28;20541;-73
2021/12/30 06:57:43;;;;;;;13.53;13.03;;;13.60;95.40;;;;;;5013388;28;20452;-73
2021/12/30 07:00:12;;;;;;;14.00;13.40;;;13.60;95.60;;;;;;5013198;28;20499;-73
2021/12/30 07:02:40;;;;;;;14.43;13.83;;;13.60;95.70;;;;;;5013337;28;20455;-73
2021/12/30 07:05:08;;;;;;;14.03;13.43;;;13.60;95.80;;;;;;5013357;28;20462;-73
2021/12/30 07:07:35;;;;;;;15.17;14.40;;;13.60;95.60;;;;;;5013427;28;20540;-73
2021/12/30 07:10:02;;;;;;;13.60;13.00;;;13.70;95.80;;;;;;5013020;28;20504;-73
2021/12/30 07:12:29;;;;;;;13.60;13.03;;;13.70;95.70;;;;;;5013277;28;20534;-73
2021/12/30 07:14:57;;;;;;;16.47;15.67;;;13.70;95.70;;;;;;5013003;28;20453;-73
2021/12/30 07:17:26;;;;;;;14.83;14.23;;;13.70;95.70;;;;;;5013272;28;20460;-73
2021/12/30 07:19:53;;;;;;;15.30;14.63;;;13.60;96.00;;;;;;5012920;28;20473;-73
2021/12/30 07:22:20;;;;;;;14.07;13.47;;;13.70;95.80;;;;;;5013280;28;20479;-73
2021/12/30 07:24:46;;;;;;;14.80;14.10;;;13.70;95.70;;;;;;5013056;28;20483;-73
2021/12/30 07:27:13;;;;;;;15.10;14.50;;;13.70;95.90;;;;;;5013055;28;20464;-73
2021/12/30 07:29:40;;;;;;;13.60;13.00;;;13.70;96.00;;;;;;5012910;28;20481;-73
2021/12/30 07:32:08;;;;;;;14.47;13.77;;;13.70;96.10;;;;;;5013061;28;20923;-73
2021/12/30 07:34:35;;;;;;;13.17;12.67;;;13.80;95.70;;;;;;5012991;28;20531;-73
2021/12/30 07:37:02;;;;;;;13.53;13.00;;;13.80;95.90;;;;;;5013017;28;20463;-73
2021/12/30 07:39:29;;;;;;;14.13;13.53;;;13.80;95.90;;;;;;5012572;28;20492;-73
2021/12/30 07:41:56;;;;;;;13.50;12.90;;;13.70;96.20;;;;;;5012570;28;20449;-73
2021/12/30 07:44:23;;;;;;;12.77;12.20;;;13.70;96.30;;;;;;5012801;28;20459;-73
2021/12/30 07:46:50;;;;;;;14.20;13.60;;;13.70;96.30;;;;;;5012242;28;20456;-73
2021/12/30 07:49:18;;;;;;;14.10;13.50;;;13.70;96.40;;;;;;5012460;28;20472;-73
2021/12/30 07:51:45;;;;;;;13.27;12.67;;;13.80;96.10;;;;;;5012763;28;20938;-73
2021/12/30 07:54:12;;;;;;;13.77;13.17;;;13.80;96.20;;;;;;5012635;28;20463;-73
2021/12/30 07:56:39;;;;;;;15.40;14.53;;;13.90;96.30;;;;;;5012728;28;20453;-73
2021/12/30 07:59:06;;;;;;;14.90;14.20;;;14.00;95.80;;;;;;5012513;28;20495;-73
2021/12/30 08:01:32;;;;;;;14.33;13.70;;;13.90;95.90;;;;;;5012510;28;20460;-73
2021/12/30 08:03:59;;;;;;;11.70;11.20;;;13.90;95.90;;;;;;5012556;28;20627;-73
2021/12/30 08:06:28;;;;;;;13.50;12.90;;;14.00;95.70;;;;;;5012561;28;20449;-73
2021/12/30 08:08:56;;;;;;;13.87;13.27;;;14.00;95.60;;;;;;5012390;28;20531;-73
2021/12/30 08:11:23;;;;;;;13.10;12.50;;;14.00;95.70;;;;;;5012325;28;20456;-73
2021/12/30 08:13:50;;;;;;;13.80;13.17;;;14.10;95.40;;;;;;5012212;28;20484;-73
2021/12/30 08:16:17;;;;;;;15.00;14.40;;;14.10;95.40;;;;;;5012373;28;20819;-73
2021/12/30 08:18:44;;;;;;;13.63;13.03;;;14.10;95.50;;;;;;5012282;28;20482;-73
2021/12/30 08:21:11;;;;;;;12.80;12.20;;;14.10;95.20;;;;;;5012203;28;20456;-73
2021/12/30 08:23:39;;;;;;;14.73;14.10;;;14.20;94.50;;;;;;5012653;28;20451;-73
2021/12/30 08:26:07;;;;;;;13.20;12.60;;;14.30;94.50;;;;;;5012362;28;20547;-73
2021/12/30 08:28:34;;;;;;;15.07;14.47;;;14.30;94.40;;;;;;5012395;28;20460;-73
2021/12/30 08:31:01;;;;;;;12.80;12.30;;;14.30;94.30;;;;;;5012435;28;20464;-73
2021/12/30 08:33:27;;;;;;;14.30;13.70;;;14.30;94.30;;;;;;5012317;28;20484;-74
2021/12/30 08:35:54;;;;;;;13.40;12.80;;;14.40;94.20;;;;;;5012362;28;20449;-73
2021/12/30 08:38:21;;;;;;;13.40;12.90;;;14.40;94.20;;;;;;5012109;28;20449;-73
2021/12/30 08:40:50;;;;;;;13.97;13.43;;;14.40;94.10;;;;;;5012204;28;20452;-73
2021/12/30 08:43:18;;;;;;;13.50;13.00;;;14.40;93.90;;;;;;5012178;28;20488;-73
2021/12/30 08:45:45;;;;;;;12.87;12.37;;;14.40;93.60;;;;;;5012340;28;20814;-73
2021/12/30 08:48:15;;;;;;;14.10;13.50;;;14.50;93.80;;;;;;5012301;28;20452;-73
2021/12/30 08:50:43;;;;;;;12.90;12.40;;;14.50;93.40;;;;;;5012046;28;20453;-74
2021/12/30 08:53:10;;;;;;;12.80;12.23;;;14.60;93.00;;;;;;5011914;28;20512;-73
2021/12/30 08:55:37;;;;;;;14.53;13.87;;;14.60;92.80;;;;;;5012171;28;20543;-73
2021/12/30 08:58:06;;;;;;;13.67;13.07;;;14.60;93.00;;;;;;5012219;28;20535;-73
2021/12/30 09:00:38;;;;;;;30.87;13.67;;;14.60;92.70;;;;;;5015202;28;20764;-73
2021/12/30 09:03:06;;;;;;;14.90;14.20;;;14.70;92.60;;;;;;5015981;28;20969;-73
2021/12/30 09:05:33;;;;;;;14.70;14.00;;;14.70;92.30;;;;;;5015466;28;20461;-73
2021/12/30 09:08:01;;;;;;;15.70;14.80;;;14.90;91.90;;;;;;5015659;28;20459;-73
2021/12/30 09:10:29;;;;;;;14.70;14.00;;;15.00;91.40;;;;;;5015202;28;20476;-73
2021/12/30 09:12:56;;;;;;;15.27;14.57;;;15.10;90.90;;;;;;5015599;28;20477;-73
2021/12/30 09:15:26;;;;;;;15.87;15.17;;;15.00;90.90;;;;;;5015361;28;20459;-73
2021/12/30 09:17:53;;;;;;;15.07;14.37;;;15.10;90.80;;;;;;5015360;28;20536;-73
2021/12/30 09:20:21;;;;;;;14.80;14.20;;;15.30;90.40;;;;;;5014996;28;20476;-74
2021/12/30 09:22:47;;;;;;;14.07;13.47;;;15.40;89.60;;;;;;5015296;28;20453;-73
2021/12/30 09:25:17;;;;;;;15.97;15.20;;;15.50;89.30;;;;;;5015081;28;20460;-73
2021/12/30 09:27:44;;;;;;;14.50;13.90;;;15.60;89.00;;;;;;5015244;28;20473;-73
2021/12/30 09:30:14;;;;;;;15.20;14.50;;;15.60;89.10;;;;;;5014987;28;20476;-73
2021/12/30 09:32:44;;;;;;;15.17;14.47;;;15.80;88.50;;;;;;5014964;28;20480;-73
2021/12/30 09:35:12;;;;;;;16.70;15.80;;;15.90;88.00;;;;;;5014957;28;20461;-73
2021/12/30 09:37:40;;;;;;;17.67;16.97;;;16.00;87.80;;;;;;5014903;28;20444;-73
2021/12/30 09:40:10;;;;;;;15.30;14.70;;;16.00;87.40;;;;;;5014794;28;20483;-73
2021/12/30 09:42:39;;;;;;;16.43;15.63;;;16.00;87.70;;;;;;5014771;28;20926;-73
2021/12/30 09:45:07;;;;;;;15.80;15.10;;;16.00;87.40;;;;;;5014821;28;20854;-73
2021/12/30 09:47:34;;;;;;;16.80;16.10;;;16.00;87.50;;;;;;5014847;28;20964;-73
2021/12/30 09:50:04;;;;;;;15.30;14.50;;;16.10;87.40;;;;;;5014754;28;20476;-73
2021/12/30 09:52:31;;;;;;;15.00;14.40;;;16.10;87.40;;;;;;5014740;28;20931;-73
2021/12/30 09:54:57;;;;;;;13.63;13.03;;;16.10;87.00;;;;;;5014654;28;20475;-73
2021/12/30 09:57:24;;;;;;;16.80;16.00;;;16.10;86.80;;;;;;5014617;28;20540;-73
2021/12/30 09:59:51;;;;;;;15.20;14.60;;;16.20;86.90;;;;;;5014161;28;20480;-73
2021/12/30 10:02:18;;;;;;;17.23;16.43;;;16.10;87.50;;;;;;5014652;28;20535;-73
2021/12/30 10:04:45;;;;;;;16.23;15.43;;;16.10;87.40;;;;;;5014483;28;20939;-73
2021/12/30 10:07:22;;;;;;;15.87;15.17;;;16.20;86.70;;;;;;5014367;28;20467;-73
2021/12/30 10:09:52;;;;;;;16.30;15.60;;;16.30;86.40;;;;;;5013866;28;20486;-73
2021/12/30 10:12:39;;;;;;;16.30;15.60;;;16.30;86.30;;;;;;5014411;28;20463;-73
2021/12/30 10:15:08;;;;;;;15.90;15.23;;;16.20;86.60;;;;;;5014245;28;20514;-73
2021/12/30 10:17:35;;;;;;;17.50;16.80;;;16.20;86.80;;;;;;5014121;28;20480;-73
2021/12/30 10:20:17;;;;;;;15.80;15.10;;;16.20;86.60;;;;;;5013951;28;20551;-73
2021/12/30 10:22:47;;;;;;;17.07;16.30;;;16.20;86.70;;;;;;5014240;28;20452;-73
2021/12/30 10:25:29;;;;;;;15.93;15.23;;;16.30;86.50;;;;;;5014068;28;20452;-73
2021/12/30 10:27:57;;;;;;;16.10;15.40;;;16.40;86.00;;;;;;5014193;28;20484;-73
2021/12/30 10:30:32;;;;;;;16.00;15.30;;;16.40;85.80;;;;;;5013678;28;21000;-73
2021/12/30 10:33:13;;;;;;;14.13;13.33;;;16.30;86.10;;;;;;5013800;28;20480;-72
2021/12/30 10:35:40;;;;;;;16.50;15.60;;;16.30;86.30;;;;;;5013957;28;20540;-72
2021/12/30 10:38:11;;;;;;;16.30;15.50;;;16.30;86.30;;;;;;5013866;28;20533;-72
2021/12/30 10:40:41;;;;;;;16.57;15.87;;;16.30;86.40;;;;;;5013646;28;20535;-72
2021/12/30 10:43:24;;;;;;;16.73;15.87;;;16.40;86.40;;;;;;5013737;28;20472;-72
2021/12/30 10:46:13;;;;;;;18.00;17.13;;;16.50;85.90;;;;;;5013716;28;20462;-73
2021/12/30 10:48:54;;;;;;;17.90;17.07;;;16.60;85.60;;;;;;5013557;28;20564;-72
2021/12/30 10:51:23;;;;;;;19.20;18.33;;;16.60;85.50;;;;;;5013651;28;20448;-73
2021/12/30 10:53:53;;;;;;;16.10;15.40;;;16.60;86.80;;;;;;5013191;28;20997;-73
2021/12/30 10:56:30;;;;;;;16.03;15.27;;;16.60;86.20;;;;;;5013380;28;20544;-72
2021/12/30 10:59:10;;;;;;;17.60;16.60;;;16.70;85.50;;;;;;5013562;28;20492;-72
2021/12/30 11:01:40;;;;;;;18.03;17.20;;;16.70;85.10;;;;;;5013539;28;20531;-72
2021/12/30 11:04:07;;;;;;;18.63;17.73;;;16.80;84.90;;;;;;5013386;28;20455;-72
2021/12/30 11:06:34;;;;;;;18.70;17.80;;;16.80;84.90;;;;;;5013354;28;20458;-72
2021/12/30 11:09:12;;;;;;;17.50;16.70;;;16.90;84.80;;;;;;5013327;28;20472;-73
2021/12/30 11:11:42;;;;;;;17.07;16.27;;;17.00;84.20;;;;;;5013365;28;20456;-72
2021/12/30 11:14:11;;;;;;;18.57;17.67;;;17.00;84.00;;;;;;5013347;28;20485;-72
2021/12/30 11:17:11;;;;;;;18.90;18.00;;;17.00;84.00;;;;;;5012976;28;20536;-72
2021/12/30 11:19:40;;;;;;;17.63;16.83;;;17.20;83.40;;;;;;5011779;28;20480;-74
2021/12/30 11:22:10;;;;;;;18.50;17.50;;;17.30;82.50;;;;;;5012640;28;20448;-74
2021/12/30 11:24:39;;;;;;;18.40;17.50;;;17.30;83.00;;;;;;5013155;28;20474;-74
2021/12/30 11:27:08;;;;;;;18.90;18.00;;;17.40;82.50;;;;;;5012930;28;20449;-74
2021/12/30 11:29:37;;;;;;;18.23;17.43;;;17.60;82.20;;;;;;5012742;28;20970;-74
2021/12/30 11:32:07;;;;;;;17.03;16.23;;;17.60;81.40;;;;;;5013094;28;20858;-74
2021/12/30 11:34:34;;;;;;;17.50;16.70;;;17.70;81.40;;;;;;5012958;28;20481;-74
2021/12/30 11:37:01;;;;;;;18.40;17.60;;;17.80;81.10;;;;;;5012961;28;20969;-74
2021/12/30 11:39:28;;;;;;;19.00;18.10;;;17.90;80.40;;;;;;5012507;28;20475;-74
2021/12/30 11:42:00;;;;;;;19.43;18.53;;;17.90;80.10;;;;;;5012733;28;20453;-74
2021/12/30 11:44:39;;;;;;;18.60;17.70;;;18.00;80.10;;;;;;5012833;28;20452;-74
2021/12/30 11:47:10;;;;;;;20.63;19.70;;;18.10;80.10;;;;;;5012640;28;20539;-74
2021/12/30 11:49:55;;;;;;;19.23;18.33;;;18.00;79.60;;;;;;5012547;28;20564;-74
2021/12/30 11:52:52;;;;;;;20.13;19.23;;;18.00;79.60;;;;;;5012850;28;20456;-74
2021/12/30 11:55:47;;;;;;;19.73;18.80;;;18.10;79.60;;;;;;5012679;28;20489;-74
2021/12/30 11:58:42;;;;;;;19.17;18.17;;;18.30;78.90;;;;;;5013162;28;21029;-74
2021/12/30 12:01:32;;;;;;;19.27;18.37;;;18.40;78.90;;;;;;5013139;28;21000;-74
2021/12/30 12:04:02;;;;;;;19.03;18.13;;;18.40;78.50;;;;;;5012558;28;20455;-74
2021/12/30 12:06:32;;;;;;;18.00;17.30;;;18.30;78.20;;;;;;5012636;28;20803;-74
2021/12/30 12:09:01;;;;;;;19.33;18.33;;;18.30;78.50;;;;;;5012483;28;20469;-74
2021/12/30 12:11:30;;;;;;;21.03;20.03;;;18.30;78.60;;;;;;5012405;28;20551;-74
2021/12/30 12:14:13;;;;;;;21.10;20.00;;;18.30;78.50;;;;;;5012476;28;20483;-74
2021/12/30 12:16:51;;;;;;;21.23;20.23;;;18.30;78.30;;;;;;5012545;28;20456;-74
2021/12/30 12:19:20;;;;;;;19.77;18.90;;;18.40;78.30;;;;;;5012137;28;20480;-74
2021/12/30 12:21:48;;;;;;;19.30;18.30;;;18.40;77.80;;;;;;5012432;28;20459;-74
2021/12/30 12:24:46;;;;;;;19.73;18.60;;;18.40;77.70;;;;;;5012402;28;20540;-74
2021/12/30 12:27:31;;;;;;;19.27;18.37;;;18.40;77.80;;;;;;4951975;29;20458;-73
2021/12/30 12:30:02;;;;;;;18.90;18.00;;;18.20;78.60;;;;;;5005590;28;20476;-74
2021/12/30 12:32:38;;;;;;;20.70;19.60;;;18.30;78.40;;;;;;5012583;28;20453;-74
2021/12/30 12:35:23;;;;;;;20.70;19.70;;;18.30;78.50;;;;;;5016077;28;20852;-74
2021/12/30 12:37:56;;;;;;;20.70;19.70;;;18.20;78.50;;;;;;5016122;28;20460;-74